createdAt,value
2018-03-28T00:01:51.314Z,8.41
2018-03-28T00:04:20.519Z,8.48
2018-03-28T00:06:49.734Z,8.50
2018-03-28T00:09:18.941Z,8.47
2018-03-28T00:11:48.981Z,8.48
2018-03-28T00:14:18.938Z,8.54
2018-03-28T00:16:48.130Z,8.55
2018-03-28T00:19:17.332Z,8.55
2018-03-28T00:21:46.577Z,8.57
2018-03-28T00:24:16.531Z,8.60
2018-03-28T00:26:45.770Z,8.60
2018-03-28T00:29:14.967Z,8.60
2018-03-28T00:31:44.958Z,8.60
2018-03-28T00:34:14.180Z,8.59
2018-03-28T00:36:43.377Z,8.61
2018-03-28T00:39:12.610Z,8.63
2018-03-28T00:41:41.905Z,8.64
2018-03-28T00:44:11.074Z,8.61
2018-03-28T00:46:40.274Z,8.57
2018-03-28T00:49:09.491Z,8.61
2018-03-28T00:51:39.534Z,8.58
2018-03-28T00:54:08.828Z,8.56
2018-03-28T00:56:38.915Z,8.54
2018-03-28T00:59:08.924Z,8.56
2018-03-28T01:01:38.122Z,8.56
2018-03-28T01:04:08.094Z,8.57
2018-03-28T01:06:37.340Z,8.54
2018-03-28T01:09:07.325Z,8.53
2018-03-28T01:11:36.558Z,8.47
2018-03-28T01:14:06.518Z,8.43
2018-03-28T01:16:35.881Z,8.45
2018-03-28T01:19:05.874Z,8.47
2018-03-28T01:21:35.101Z,8.48
2018-03-28T01:24:04.375Z,8.49
2018-03-28T01:26:33.857Z,8.49
2018-03-28T01:29:03.054Z,8.53
2018-03-28T01:31:32.259Z,8.50
2018-03-28T01:34:01.473Z,8.46
2018-03-28T01:36:31.462Z,8.44
2018-03-28T01:39:00.679Z,8.47
2018-03-28T01:41:29.971Z,8.41
2018-03-28T01:43:59.169Z,8.43
2018-03-28T01:46:28.359Z,8.37
2018-03-28T01:48:57.613Z,8.36
2018-03-28T01:51:27.114Z,8.33
2018-03-28T01:53:56.301Z,8.30
2018-03-28T01:56:25.551Z,8.35
2018-03-28T01:58:54.927Z,8.40
2018-03-28T02:01:24.121Z,8.37
2018-03-28T02:03:53.550Z,8.40
2018-03-28T02:06:22.747Z,8.41
2018-03-28T02:08:51.956Z,8.46
2018-03-28T02:11:21.458Z,8.50
2018-03-28T02:13:50.642Z,8.50
2018-03-28T02:16:19.843Z,8.54
2018-03-28T02:18:49.046Z,8.57
2018-03-28T02:21:19.931Z,8.55
2018-03-28T02:23:49.170Z,8.55
2018-03-28T02:26:18.372Z,8.58
2018-03-28T02:28:47.608Z,8.63
2018-03-28T02:31:17.619Z,8.67
2018-03-28T02:33:47.619Z,8.64
2018-03-28T02:36:16.817Z,8.65
2018-03-28T02:38:46.072Z,8.67
2018-03-28T02:41:15.311Z,8.67
2018-03-28T02:43:45.550Z,8.71
2018-03-28T02:46:14.747Z,8.74
2018-03-28T02:48:44.742Z,8.71
2018-03-28T02:51:14.728Z,8.67
2018-03-28T02:53:43.978Z,8.63
2018-03-28T02:56:13.955Z,8.60
2018-03-28T02:58:43.143Z,8.61
2018-03-28T03:01:12.353Z,8.62
2018-03-28T03:03:41.579Z,8.60
2018-03-28T03:06:10.801Z,8.64
2018-03-28T03:08:40.016Z,8.66
2018-03-28T03:11:09.235Z,8.66
2018-03-28T03:13:38.414Z,8.69
2018-03-28T03:16:07.713Z,8.65
2018-03-28T03:18:36.923Z,8.69
2018-03-28T03:21:06.106Z,8.74
2018-03-28T03:23:35.331Z,8.76
2018-03-28T03:26:04.522Z,8.81
2018-03-28T03:28:33.723Z,8.81
2018-03-28T03:31:02.930Z,8.79
2018-03-28T03:33:32.134Z,8.83
2018-03-28T03:36:01.351Z,8.85
2018-03-28T03:38:31.330Z,8.81
2018-03-28T03:41:00.540Z,8.83
2018-03-28T03:43:29.772Z,8.82
2018-03-28T03:45:59.838Z,8.82
2018-03-28T03:48:29.064Z,8.86
2018-03-28T03:50:58.271Z,8.88
2018-03-28T03:53:27.495Z,8.88
2018-03-28T03:55:56.743Z,8.89
2018-03-28T03:58:25.998Z,8.89
2018-03-28T04:00:55.242Z,8.81
2018-03-28T04:03:24.442Z,8.83
2018-03-28T04:05:53.661Z,8.84
2018-03-28T04:08:23.779Z,8.86
2018-03-28T04:10:53.754Z,8.89
2018-03-28T04:13:23.267Z,8.90
2018-03-28T04:15:52.516Z,8.90
2018-03-28T04:18:21.747Z,8.92
2018-03-28T04:20:50.946Z,8.90
2018-03-28T04:23:20.219Z,8.92
2018-03-28T04:25:50.258Z,8.90
2018-03-28T04:28:19.434Z,8.91
2018-03-28T04:30:48.646Z,8.91
2018-03-28T04:33:17.952Z,8.90
2018-03-28T04:35:47.186Z,8.91
2018-03-28T04:38:16.599Z,8.87
2018-03-28T04:40:45.822Z,8.87
2018-03-28T04:43:15.787Z,8.91
2018-03-28T04:45:45.012Z,8.92
2018-03-28T04:48:14.244Z,8.92
2018-03-28T04:50:43.459Z,8.93
2018-03-28T04:53:12.654Z,8.97
2018-03-28T04:55:41.898Z,9.00
2018-03-28T04:58:11.878Z,9.01
2018-03-28T05:00:41.825Z,8.99
2018-03-28T05:03:11.046Z,8.99
2018-03-28T05:05:41.043Z,9.03
2018-03-28T05:08:10.257Z,9.00
2018-03-28T05:10:40.250Z,9.01
2018-03-28T05:13:09.447Z,9.05
2018-03-28T05:15:38.659Z,9.07
2018-03-28T05:18:08.651Z,9.12
2018-03-28T05:20:37.951Z,9.09
2018-03-28T05:23:07.174Z,9.11
2018-03-28T05:25:37.134Z,9.10
2018-03-28T05:28:06.371Z,9.05
2018-03-28T05:30:35.851Z,9.05
2018-03-28T05:33:05.830Z,8.99
2018-03-28T05:35:35.092Z,8.97
2018-03-28T05:38:05.068Z,8.95
2018-03-28T05:40:35.035Z,9.00
2018-03-28T05:43:05.011Z,8.99
2018-03-28T05:45:34.213Z,8.91
2018-03-28T05:48:03.438Z,8.84
2018-03-28T05:50:33.410Z,8.80
2018-03-28T05:53:02.599Z,8.83
2018-03-28T05:55:31.919Z,8.84
2018-03-28T05:58:01.124Z,8.85
2018-03-28T06:00:30.315Z,8.90
2018-03-28T06:02:59.535Z,8.92
2018-03-28T06:05:28.763Z,8.92
2018-03-28T06:07:58.436Z,8.94
2018-03-28T06:10:28.441Z,8.91
2018-03-28T06:12:57.651Z,8.87
2018-03-28T06:15:26.878Z,8.88
2018-03-28T06:17:57.081Z,8.90
2018-03-28T06:20:27.062Z,8.90
2018-03-28T06:22:56.253Z,8.92
2018-03-28T06:25:25.493Z,8.97
2018-03-28T06:27:54.657Z,8.97
2018-03-28T06:30:23.867Z,8.97
2018-03-28T06:32:53.065Z,9.01
2018-03-28T06:35:22.416Z,8.94
2018-03-28T06:37:51.638Z,8.94
2018-03-28T06:40:20.920Z,8.95
2018-03-28T06:42:50.857Z,8.99
2018-03-28T06:45:20.879Z,8.95
2018-03-28T06:47:50.066Z,8.90
2018-03-28T06:56:32.207Z,8.97
2018-03-28T06:59:01.429Z,8.99
2018-03-28T07:01:30.711Z,8.99
2018-03-28T07:03:59.953Z,9.02
2018-03-28T07:06:29.953Z,8.95
2018-03-28T07:08:59.937Z,8.89
2018-03-28T07:11:29.168Z,8.81
2018-03-28T07:13:59.160Z,8.78
2018-03-28T07:16:28.383Z,8.79
2018-03-28T07:18:57.587Z,8.79
2018-03-28T07:21:27.619Z,8.79
2018-03-28T07:23:57.590Z,8.83
2018-03-28T07:26:26.808Z,8.92
2018-03-28T07:28:56.793Z,8.99
2018-03-28T07:31:26.045Z,9.07
2018-03-28T07:33:55.261Z,9.15
2018-03-28T07:36:24.479Z,9.22
2018-03-28T07:38:53.717Z,9.31
2018-03-28T07:41:23.764Z,9.32
2018-03-28T07:43:53.024Z,9.27
2018-03-28T07:46:23.107Z,9.32
2018-03-28T07:48:52.356Z,9.37
2018-03-28T07:51:22.339Z,9.37
2018-03-28T07:53:51.568Z,9.36
2018-03-28T07:56:21.542Z,9.35
2018-03-28T07:58:50.775Z,9.38
2018-03-28T08:01:20.764Z,9.50
2018-03-28T08:03:50.182Z,9.61
2018-03-28T08:06:20.186Z,9.69
2018-03-28T08:08:49.399Z,9.77
2018-03-28T08:11:18.627Z,9.76
2018-03-28T08:13:47.840Z,9.81
2018-03-28T08:16:17.050Z,9.86
2018-03-28T08:18:46.333Z,9.79
2018-03-28T08:21:15.538Z,9.80
2018-03-28T08:23:44.745Z,9.73
2018-03-28T08:26:13.948Z,9.79
2018-03-28T08:28:43.207Z,9.96
2018-03-28T08:31:12.420Z,10.11
2018-03-28T08:33:41.644Z,10.06
2018-03-28T08:36:10.878Z,10.06
2018-03-28T08:38:40.858Z,10.05
2018-03-28T08:41:10.147Z,10.04
2018-03-28T08:43:39.341Z,10.09
2018-03-28T08:46:08.652Z,10.19
2018-03-28T08:48:37.859Z,10.36
2018-03-28T08:51:07.099Z,10.41
2018-03-28T08:53:36.339Z,10.51
2018-03-28T08:56:05.639Z,10.52
2018-03-28T08:58:34.825Z,10.61
2018-03-28T09:01:04.075Z,10.68
2018-03-28T09:03:33.325Z,10.72
2018-03-28T09:06:02.554Z,10.79
2018-03-28T09:08:31.761Z,10.74
2018-03-28T09:11:01.017Z,10.75
2018-03-28T09:13:31.002Z,10.79
2018-03-28T09:16:00.269Z,10.88
2018-03-28T09:18:30.291Z,10.91
2018-03-28T09:20:59.541Z,10.93
2018-03-28T09:23:28.745Z,11.00
2018-03-28T09:25:58.104Z,11.05
2018-03-28T09:28:27.351Z,11.16
2018-03-28T09:30:56.550Z,11.28
2018-03-28T09:33:26.551Z,11.36
2018-03-28T09:35:55.777Z,11.44
2018-03-28T09:38:25.062Z,11.55
2018-03-28T09:40:55.297Z,11.52
2018-03-28T09:43:24.572Z,11.50
2018-03-28T09:45:54.518Z,11.48
2018-03-28T09:48:23.767Z,11.45
2018-03-28T09:50:53.044Z,11.51
2018-03-28T09:53:22.375Z,11.52
2018-03-28T09:55:51.641Z,11.56
2018-03-28T09:58:20.847Z,11.69
2018-03-28T10:14:13.470Z,11.76
2018-03-28T10:16:42.688Z,11.78
2018-03-28T10:19:12.690Z,11.76
2018-03-28T10:21:42.693Z,11.75
2018-03-28T10:24:11.911Z,11.85
2018-03-28T10:26:41.140Z,11.95
2018-03-28T10:29:10.380Z,12.02
2018-03-28T10:31:39.611Z,11.94
2018-03-28T10:34:08.900Z,11.98
2018-03-28T10:36:38.865Z,11.93
2018-03-28T10:39:08.097Z,11.86
2018-03-28T10:44:44.619Z,11.80
2018-03-28T10:47:13.843Z,11.71
2018-03-28T10:49:43.170Z,11.57
2018-03-28T10:52:12.387Z,11.49
2018-03-28T10:54:42.389Z,11.46
2018-03-28T10:57:12.420Z,11.48
2018-03-28T10:59:42.625Z,11.42
2018-03-28T11:02:11.842Z,11.43
2018-03-28T11:04:41.871Z,11.40
2018-03-28T11:07:11.861Z,11.41
2018-03-28T11:09:41.064Z,11.37
2018-03-28T11:12:10.315Z,11.36
2018-03-28T11:14:39.563Z,11.34
2018-03-28T11:17:09.562Z,11.32
2018-03-28T11:19:38.784Z,11.36
2018-03-28T11:22:08.809Z,11.37
2018-03-28T11:24:38.775Z,11.40
2018-03-28T11:27:08.003Z,11.44
2018-03-28T11:29:38.052Z,11.44
2018-03-28T11:32:07.290Z,11.38
2018-03-28T11:34:36.618Z,11.43
2018-03-28T11:37:05.866Z,11.49
2018-03-28T11:39:35.077Z,11.55
2018-03-28T11:42:04.292Z,11.55
2018-03-28T11:44:34.341Z,11.49
2018-03-28T11:47:04.602Z,11.44
2018-03-28T11:49:33.797Z,11.36
2018-03-28T11:52:03.092Z,11.37
2018-03-28T11:54:33.089Z,11.40
2018-03-28T11:57:02.468Z,11.37
2018-03-28T11:59:32.546Z,11.37
2018-03-28T12:02:01.752Z,11.30
2018-03-28T12:04:31.005Z,11.27
2018-03-28T12:07:01.003Z,11.36
2018-03-28T12:09:30.994Z,11.37
2018-03-28T12:12:00.222Z,11.48
2018-03-28T12:14:29.467Z,11.50
2018-03-28T12:16:58.667Z,11.55
2018-03-28T12:19:27.894Z,11.65
2018-03-28T12:21:57.134Z,11.69
2018-03-28T12:24:26.354Z,11.68
2018-03-28T12:26:55.618Z,11.66
2018-03-28T12:29:25.625Z,11.75
2018-03-28T12:31:54.812Z,11.74
2018-03-28T12:34:24.818Z,11.73
2018-03-28T12:36:54.028Z,11.72
2018-03-28T12:39:24.032Z,11.68
2018-03-28T12:41:53.229Z,11.67
2018-03-28T12:44:22.450Z,11.61
2018-03-28T12:46:51.658Z,11.60
2018-03-28T12:49:21.750Z,11.63
2018-03-28T12:51:52.089Z,11.69
2018-03-28T12:54:22.055Z,11.73
2018-03-28T12:56:51.291Z,11.75
2018-03-28T12:59:21.279Z,11.79
2018-03-28T13:01:50.482Z,11.88
2018-03-28T13:04:19.743Z,11.94
2018-03-28T13:06:48.970Z,11.95
2018-03-28T13:09:18.198Z,11.86
2018-03-28T13:11:48.204Z,11.72
2018-03-28T13:14:17.445Z,11.69
2018-03-28T13:16:46.687Z,11.69
2018-03-28T13:19:15.972Z,11.66
2018-03-28T13:24:49.930Z,11.52
2018-03-28T13:27:19.162Z,11.37
2018-03-28T13:29:48.378Z,11.29
2018-03-28T13:32:17.637Z,11.22
2018-03-28T13:34:47.618Z,11.19
2018-03-28T13:37:16.874Z,11.15
2018-03-28T13:39:46.124Z,11.08
2018-03-28T13:42:15.389Z,11.10
2018-03-28T13:44:44.600Z,11.17
2018-03-28T13:47:13.840Z,11.18
2018-03-28T13:49:43.935Z,11.17
2018-03-28T13:52:13.160Z,11.21
2018-03-28T13:54:43.167Z,11.23
2018-03-28T13:57:13.159Z,11.21
2018-03-28T13:59:43.176Z,11.20
2018-03-28T14:02:12.390Z,11.16
2018-03-28T14:04:41.662Z,11.16
2018-03-28T14:07:10.900Z,11.17
2018-03-28T14:09:40.166Z,11.19
2018-03-28T14:12:09.363Z,11.13
2018-03-28T14:14:38.594Z,11.10
2018-03-28T14:17:08.570Z,11.05
2018-03-28T14:19:37.832Z,11.04
2018-03-28T14:22:07.063Z,11.02
2018-03-28T14:24:36.255Z,11.01
2018-03-28T14:27:05.851Z,10.94
2018-03-28T14:29:35.898Z,10.92
2018-03-28T14:35:08.732Z,10.89
2018-03-28T14:37:38.723Z,10.83
2018-03-28T14:40:07.926Z,10.81
2018-03-28T14:42:37.149Z,10.81
2018-03-28T14:45:07.126Z,10.86
2018-03-28T14:47:36.350Z,10.85
2018-03-28T14:50:05.529Z,10.70
2018-03-28T14:52:34.758Z,10.48
2018-03-28T14:55:04.011Z,10.41
2018-03-28T14:57:33.326Z,10.40
2018-03-28T15:00:02.569Z,10.34
2018-03-28T15:02:31.827Z,10.38
2018-03-28T15:05:01.076Z,10.31
2018-03-28T15:07:30.298Z,10.13
2018-03-28T15:09:59.485Z,9.98
2018-03-28T15:12:28.918Z,9.91
2018-03-28T15:14:58.119Z,9.84
2018-03-28T15:17:27.375Z,9.73
2018-03-28T15:19:56.569Z,9.68
2018-03-28T15:22:25.872Z,9.61
2018-03-28T15:24:55.063Z,9.46
2018-03-28T15:27:24.273Z,9.34
2018-03-28T15:29:53.478Z,9.34
2018-03-28T15:32:22.699Z,9.32
2018-03-28T15:34:51.889Z,9.38
2018-03-28T15:37:21.116Z,9.34
2018-03-28T15:39:50.299Z,9.27
2018-03-28T15:42:19.675Z,9.30
2018-03-28T15:44:48.883Z,9.33
2018-03-28T15:47:18.116Z,9.26
2018-03-28T15:49:48.205Z,9.19
2018-03-28T15:52:17.380Z,9.13
2018-03-28T15:54:46.647Z,9.14
2018-03-28T15:57:15.810Z,9.16
2018-03-28T15:59:45.294Z,9.16
2018-03-28T16:02:14.508Z,9.20
2018-03-28T16:04:44.470Z,9.25
2018-03-28T16:07:13.655Z,9.31
2018-03-28T16:09:42.875Z,9.32
2018-03-28T16:12:12.080Z,9.28
2018-03-28T16:14:41.278Z,9.26
2018-03-28T16:17:10.533Z,9.23
2018-03-28T16:19:39.740Z,9.24
2018-03-28T16:22:09.028Z,9.19
2018-03-28T16:24:38.291Z,9.18
2018-03-28T16:27:07.481Z,9.18
2018-03-28T16:29:36.724Z,9.12
2018-03-28T16:32:06.793Z,9.10
2018-03-28T16:34:40.817Z,9.10
2018-03-28T16:37:10.036Z,9.09
2018-03-28T16:39:40.011Z,9.07
2018-03-28T16:42:09.209Z,9.05
2018-03-28T16:44:38.398Z,9.08
2018-03-28T16:47:07.612Z,9.10
2018-03-28T16:49:36.861Z,9.11
2018-03-28T16:52:06.090Z,9.15
2018-03-28T16:54:36.527Z,9.17
2018-03-28T16:57:05.732Z,9.14
2018-03-28T16:59:34.970Z,9.10
2018-03-28T17:02:04.966Z,9.11
2018-03-28T17:04:34.209Z,9.07
2018-03-28T17:07:03.426Z,9.03
2018-03-28T17:09:32.764Z,8.99
2018-03-28T17:12:01.980Z,8.95
2018-03-28T17:14:31.985Z,8.96
2018-03-28T17:17:01.237Z,9.01
2018-03-28T17:19:30.451Z,9.06
2018-03-28T17:21:59.640Z,9.12
2018-03-28T17:24:28.919Z,9.11
2018-03-28T17:26:58.094Z,9.11
2018-03-28T17:29:27.335Z,9.13
2018-03-28T17:31:56.527Z,9.17
2018-03-28T17:34:25.730Z,9.22
2018-03-28T17:36:54.948Z,9.22
2018-03-28T17:39:24.160Z,9.23
2018-03-28T17:41:54.164Z,9.23
2018-03-28T17:44:24.241Z,9.22
2018-03-28T17:46:53.436Z,9.18
2018-03-28T17:49:22.627Z,9.16
2018-03-28T17:51:51.851Z,9.10
2018-03-28T17:54:21.052Z,9.04
2018-03-28T17:56:50.274Z,9.01
2018-03-28T17:59:19.467Z,9.02
2018-03-28T18:01:49.511Z,8.89
2018-03-28T18:04:18.722Z,8.95
2018-03-28T18:06:47.960Z,8.98
2018-03-28T18:09:17.413Z,8.97
2018-03-28T18:11:47.386Z,8.99
2018-03-28T18:14:16.578Z,8.98
2018-03-28T18:16:45.816Z,8.98
2018-03-28T18:19:14.988Z,9.03
2018-03-28T18:21:44.964Z,9.08
2018-03-28T18:24:14.179Z,9.15
2018-03-28T18:26:43.410Z,9.22
2018-03-28T18:29:13.418Z,9.22
2018-03-28T18:31:42.671Z,9.24
2018-03-28T18:34:11.898Z,9.29
2018-03-28T18:36:41.144Z,9.33
2018-03-28T18:39:10.354Z,9.30
2018-03-28T18:41:40.345Z,9.32
2018-03-28T18:44:09.539Z,9.28
2018-03-28T18:46:39.520Z,9.26
2018-03-28T18:49:08.742Z,9.12
2018-03-28T18:51:38.731Z,9.00
2018-03-28T18:54:07.926Z,8.99
2018-03-28T18:56:37.527Z,8.91
2018-03-28T18:59:06.905Z,8.82
2018-03-28T19:01:36.818Z,8.80
2018-03-28T19:04:06.024Z,8.79
2018-03-28T19:06:35.262Z,8.82
2018-03-28T19:09:04.479Z,8.88
2018-03-28T19:11:33.803Z,8.88
2018-03-28T19:14:03.254Z,8.91
2018-03-28T19:16:32.460Z,8.96
2018-03-28T19:19:03.356Z,8.98
2018-03-28T19:21:32.575Z,8.96
2018-03-28T19:24:01.793Z,8.99
2018-03-28T19:26:31.027Z,8.97
2018-03-28T19:29:00.263Z,8.93
2018-03-28T19:31:29.480Z,8.87
2018-03-28T19:33:58.777Z,8.89
2018-03-28T19:36:27.968Z,8.90
2018-03-28T19:51:57.220Z,8.47
2018-03-28T19:54:26.466Z,8.31
2018-03-28T19:56:55.684Z,8.12
2018-03-28T19:59:25.668Z,7.94
2018-03-28T20:01:54.931Z,7.75
2018-03-28T20:18:23.146Z,7.10
2018-03-28T20:20:53.117Z,6.89
2018-03-28T20:23:22.418Z,6.82
2018-03-28T20:25:51.637Z,6.70
2018-03-28T20:28:20.835Z,6.71
2018-03-28T20:30:50.075Z,6.69
2018-03-28T20:33:19.316Z,6.65
2018-03-28T20:35:48.531Z,6.60
2018-03-28T20:38:17.795Z,6.51
2018-03-28T20:40:47.012Z,6.50
2018-03-28T20:43:16.237Z,6.41
2018-03-28T20:45:45.447Z,6.34
2018-03-28T20:48:15.411Z,6.27
2018-03-28T20:50:44.624Z,6.23
2018-03-28T20:53:13.861Z,6.21
2018-03-28T20:55:43.851Z,6.25
2018-03-28T20:58:13.142Z,6.29
2018-03-28T21:00:42.408Z,6.32
2018-03-28T21:03:11.634Z,6.28
2018-03-28T21:05:40.849Z,6.33
2018-03-28T21:08:10.048Z,6.33
2018-03-28T21:10:39.348Z,6.34
2018-03-28T21:13:08.658Z,6.27
2018-03-28T21:15:38.630Z,6.22
2018-03-28T21:18:07.884Z,6.17
2018-03-28T21:20:37.842Z,6.17
2018-03-28T21:23:07.108Z,6.22
2018-03-28T21:25:37.092Z,6.21
2018-03-28T21:28:06.313Z,6.15
2018-03-28T21:30:36.525Z,6.12
2018-03-28T21:33:06.524Z,6.09
2018-03-28T21:35:35.739Z,5.98
2018-03-28T21:38:05.725Z,5.85
2018-03-28T21:40:34.947Z,5.82
2018-03-28T21:43:04.960Z,5.76
2018-03-28T21:45:34.964Z,5.78
2018-03-28T21:48:04.209Z,5.74
2018-03-28T21:50:33.603Z,5.70
2018-03-28T21:53:03.572Z,5.67
2018-03-28T21:55:32.819Z,5.59
2018-03-28T21:58:02.039Z,5.67
2018-03-28T22:00:31.251Z,5.66
2018-03-28T22:03:00.454Z,5.62
2018-03-28T22:05:30.436Z,5.55
2018-03-28T22:07:59.632Z,5.50
2018-03-28T22:10:28.845Z,5.51
2018-03-28T22:12:58.091Z,5.46
2018-03-28T22:15:28.093Z,5.38
2018-03-28T22:17:57.593Z,5.32
2018-03-28T22:20:26.838Z,5.18
2018-03-28T22:22:56.809Z,5.07
2018-03-28T22:25:26.056Z,5.08
2018-03-28T22:27:55.295Z,5.09
2018-03-28T22:30:25.258Z,5.12
2018-03-28T22:32:54.499Z,5.15
2018-03-28T22:35:23.701Z,5.15
2018-03-28T22:37:52.937Z,5.11
2018-03-28T22:40:22.974Z,5.06
2018-03-28T22:42:52.242Z,5.00
2018-03-28T22:45:21.449Z,4.96
2018-03-28T22:47:50.724Z,4.86
2018-03-28T22:50:19.976Z,4.85
2018-03-28T22:52:49.219Z,4.87
2018-03-28T22:55:18.447Z,4.83
2018-03-28T22:57:48.478Z,4.83
2018-03-28T23:00:18.599Z,4.81
2018-03-28T23:02:48.082Z,4.74
2018-03-28T23:05:18.082Z,4.69
2018-03-28T23:07:47.333Z,4.71
2018-03-28T23:10:16.554Z,4.69
2018-03-28T23:12:45.806Z,4.71
2018-03-28T23:15:15.072Z,4.69
2018-03-28T23:17:44.226Z,4.73
2018-03-28T23:20:13.479Z,4.74
2018-03-28T23:22:42.658Z,4.67
2018-03-28T23:25:11.897Z,4.58
2018-03-28T23:27:41.917Z,4.60
2018-03-28T23:30:11.123Z,4.54
2018-03-28T23:32:40.333Z,4.60
2018-03-28T23:35:09.569Z,4.54
2018-03-28T23:37:38.759Z,4.60
2018-03-28T23:40:07.975Z,4.57
2018-03-28T23:42:37.942Z,4.60
2018-03-28T23:45:07.429Z,4.67
2018-03-28T23:47:36.621Z,4.69
2018-03-28T23:50:05.870Z,4.76
2018-03-28T23:52:35.045Z,4.80
2018-03-28T23:55:04.335Z,4.75
2018-03-28T23:57:33.525Z,4.75
